Time;durP1;ratioP1;P1;durP2;ratioP2;P2;SDS_P1;SDS_P2;PMS_P1;PMS_P2;Temp;Humidity;BMP_temperature;BMP_pressure;BME280_temperature;BME280_humidity;BME280_pressure;Samples;Min_cycle;Max_cycle;Signal;HPM_P1;HPM_P2
2022/07/30 00:02:03;;;;;;;5.15;2.97;;;15.10;99.90;;;;;;5074336;28;20413;-65
2022/07/30 00:04:28;;;;;;;4.63;3.33;;;15.00;99.90;;;;;;5072179;28;20039;-65
2022/07/30 00:06:54;;;;;;;6.03;3.42;;;15.00;99.90;;;;;;5058118;28;20040;-66
2022/07/30 00:09:20;;;;;;;3.70;3.20;;;15.00;99.90;;;;;;5086551;28;20402;-66
2022/07/30 00:11:45;;;;;;;5.43;3.22;;;14.90;99.90;;;;;;5075447;28;20075;-65
2022/07/30 00:14:11;;;;;;;5.10;2.80;;;14.90;99.90;;;;;;5074232;28;20553;-66
2022/07/30 00:16:37;;;;;;;3.92;2.92;;;14.80;99.90;;;;;;5074520;28;20047;-65
2022/07/30 00:19:03;;;;;;;3.78;2.72;;;14.80;99.90;;;;;;5072702;28;20047;-65
2022/07/30 00:21:29;;;;;;;5.13;3.13;;;14.80;99.90;;;;;;5092302;28;20032;-66
2022/07/30 00:23:54;;;;;;;6.18;3.72;;;14.80;99.90;;;;;;5072952;28;20044;-65
2022/07/30 00:26:20;;;;;;;7.60;4.10;;;14.70;99.90;;;;;;5074334;28;20478;-65
2022/07/30 00:28:45;;;;;;;4.53;3.10;;;14.60;99.90;;;;;;5074144;28;20052;-63
2022/07/30 00:31:11;;;;;;;7.68;3.97;;;14.50;99.90;;;;;;5072656;28;20067;-65
2022/07/30 00:33:37;;;;;;;5.00;3.40;;;14.50;99.90;;;;;;5072560;28;20040;-65
2022/07/30 00:36:03;;;;;;;7.05;4.05;;;14.40;99.90;;;;;;5073488;28;20050;-65
2022/07/30 00:38:28;;;;;;;6.07;3.90;;;14.40;99.90;;;;;;5091944;28;20036;-65
2022/07/30 00:40:54;;;;;;;5.80;3.83;;;14.40;99.90;;;;;;5071740;28;20039;-65
2022/07/30 00:43:20;;;;;;;5.60;3.97;;;14.30;99.90;;;;;;5072255;28;20040;-65
2022/07/30 00:45:45;;;;;;;4.72;4.03;;;14.30;99.90;;;;;;5073471;28;20470;-66
2022/07/30 00:48:12;;;;;;;6.10;4.30;;;14.30;99.90;;;;;;5071371;28;20036;-65
2022/07/30 00:50:38;;;;;;;4.78;4.22;;;14.30;99.90;;;;;;5091044;28;20047;-66
2022/07/30 00:53:05;;;;;;;5.50;3.63;;;14.30;99.90;;;;;;5071365;28;20397;-65
2022/07/30 00:55:31;;;;;;;6.50;4.15;;;14.30;99.90;;;;;;5056934;28;20036;-65
2022/07/30 00:57:57;;;;;;;4.15;3.75;;;14.30;99.90;;;;;;5075453;28;20367;-66
2022/07/30 01:00:23;;;;;;;6.43;4.20;;;14.20;99.90;;;;;;5073191;28;20055;-65
2022/07/30 01:02:48;;;;;;;7.05;4.25;;;14.20;99.90;;;;;;5071308;28;20058;-65
2022/07/30 01:05:14;;;;;;;6.05;4.30;;;14.20;99.90;;;;;;5073182;28;20494;-65
2022/07/30 01:07:40;;;;;;;6.63;5.18;;;14.20;99.90;;;;;;5073339;28;20393;-66
2022/07/30 01:10:08;;;;;;;9.30;5.80;;;14.20;99.90;;;;;;5074336;28;20123;-65
2022/07/30 01:12:34;;;;;;;9.20;6.38;;;14.20;99.90;;;;;;5072980;28;20032;-64
2022/07/30 01:15:03;;;;;;;8.13;5.85;;;14.10;99.90;;;;;;5073077;28;20051;-65
2022/07/30 01:17:29;;;;;;;7.05;5.60;;;14.20;99.90;;;;;;5072826;28;20119;-66
2022/07/30 01:20:00;;;;;;;5.93;5.25;;;14.20;99.90;;;;;;5072422;28;20185;-66
2022/07/30 01:22:29;;;;;;;6.80;5.20;;;14.20;99.90;;;;;;5084821;28;20382;-65
2022/07/30 01:25:03;;;;;;;6.15;4.93;;;14.20;99.90;;;;;;5071662;28;20494;-66
2022/07/30 01:27:33;;;;;;;6.60;4.80;;;14.20;99.90;;;;;;5056840;28;20086;-65
2022/07/30 01:30:03;;;;;;;8.77;5.22;;;14.20;99.90;;;;;;5072428;28;20047;-67
2022/07/30 01:32:31;;;;;;;7.03;6.30;;;14.20;99.90;;;;;;5071765;28;20055;-66
2022/07/30 01:34:59;;;;;;;9.73;5.80;;;14.20;99.90;;;;;;5071320;28;20040;-66
2022/07/30 01:37:26;;;;;;;5.40;4.45;;;14.10;99.90;;;;;;5089933;28;20032;-65
2022/07/30 01:39:53;;;;;;;6.18;4.63;;;14.00;99.90;;;;;;5072674;28;20044;-65
2022/07/30 01:42:20;;;;;;;6.30;4.78;;;14.00;99.90;;;;;;5073021;28;20398;-65
2022/07/30 01:44:47;;;;;;;6.55;4.97;;;14.00;99.90;;;;;;5089984;28;20051;-66
2022/07/30 01:47:15;;;;;;;5.80;5.20;;;14.00;99.90;;;;;;5078609;28;20048;-65
2022/07/30 01:49:43;;;;;;;6.82;5.70;;;14.00;99.90;;;;;;5072181;28;20409;-65
2022/07/30 01:52:09;;;;;;;7.50;5.57;;;14.00;99.90;;;;;;5071781;28;20032;-65
2022/07/30 01:54:36;;;;;;;6.03;5.40;;;14.00;99.90;;;;;;5070323;28;20036;-66
2022/07/30 01:57:04;;;;;;;9.15;6.93;;;14.00;99.90;;;;;;5073391;28;20448;-64
2022/07/30 01:59:33;;;;;;;116.97;11.75;;;14.00;99.90;;;;;;5071753;28;20044;-64
2022/07/30 02:01:59;;;;;;;90.25;10.02;;;14.00;99.90;;;;;;5071704;28;20787;-66
2022/07/30 02:04:26;;;;;;;136.88;10.43;;;13.90;99.90;;;;;;5074999;28;20063;-66
2022/07/30 02:07:27;;;;;;;103.68;7.70;;;13.80;99.90;;;;;;5076185;28;20068;-65
2022/07/30 02:10:03;;;;;;;34.83;5.93;;;13.70;99.90;;;;;;5072130;28;20123;-65
2022/07/30 02:12:29;;;;;;;19.17;6.22;;;13.70;99.90;;;;;;5054209;28;20052;-65
2022/07/30 02:15:10;;;;;;;19.65;4.88;;;13.70;99.90;;;;;;5072043;28;20181;-66
2022/07/30 02:18:06;;;;;;;30.10;5.63;;;13.70;99.90;;;;;;5070667;28;20048;-66
2022/07/30 02:20:34;;;;;;;41.05;5.50;;;13.80;99.90;;;;;;5069830;28;20210;-65
2022/07/30 02:23:05;;;;;;;14.38;5.72;;;13.70;99.90;;;;;;5071004;28;20102;-66
2022/07/30 02:25:37;;;;;;;41.90;6.68;;;13.70;99.90;;;;;;5090290;28;20111;-65
2022/07/30 02:28:08;;;;;;;41.40;6.10;;;13.70;99.90;;;;;;5087640;28;20048;-65
2022/07/30 02:30:36;;;;;;;14.38;5.88;;;13.70;99.90;;;;;;5071924;28;20044;-65
2022/07/30 02:33:07;;;;;;;14.52;5.80;;;13.70;99.90;;;;;;5071055;28;20131;-66
2022/07/30 02:35:33;;;;;;;7.45;5.68;;;13.70;99.90;;;;;;5071813;28;20429;-67
2022/07/30 02:38:01;;;;;;;6.90;6.20;;;13.70;99.90;;;;;;5088399;28;20040;-67
2022/07/30 02:40:27;;;;;;;6.47;5.90;;;13.80;99.90;;;;;;5071670;28;20086;-65
2022/07/30 02:42:53;;;;;;;8.52;6.95;;;13.80;99.90;;;;;;5073912;28;20044;-66
2022/07/30 02:45:21;;;;;;;17.15;6.78;;;13.90;99.90;;;;;;5072120;28;20043;-66
2022/07/30 02:48:06;;;;;;;7.82;5.68;;;13.90;99.90;;;;;;5052257;28;20494;-66
2022/07/30 02:50:32;;;;;;;38.30;6.72;;;13.90;99.90;;;;;;5055354;28;20844;-65
2022/07/30 02:53:00;;;;;;;22.38;6.18;;;13.90;99.90;;;;;;5071284;28;20031;-65
2022/07/30 02:55:27;;;;;;;28.65;6.22;;;13.90;99.90;;;;;;5088618;28;20036;-66
2022/07/30 02:57:55;;;;;;;44.22;6.95;;;13.90;99.90;;;;;;5075467;28;20119;-66
2022/07/30 03:00:23;;;;;;;10.30;6.53;;;13.90;99.90;;;;;;5088874;28;20424;-65
2022/07/30 03:02:50;;;;;;;14.07;6.53;;;13.90;99.90;;;;;;5078606;28;20036;-65
2022/07/30 03:05:16;;;;;;;7.18;6.05;;;14.00;99.90;;;;;;5090792;28;20067;-65
2022/07/30 03:07:44;;;;;;;7.22;6.43;;;14.00;99.90;;;;;;5075212;28;20051;-66
2022/07/30 03:10:11;;;;;;;6.57;5.97;;;14.00;99.90;;;;;;5092427;28;20145;-65
2022/07/30 03:12:40;;;;;;;9.30;7.43;;;14.10;99.90;;;;;;5075693;28;20097;-67
2022/07/30 03:15:07;;;;;;;9.50;7.15;;;14.10;99.90;;;;;;5076235;28;20040;-65
2022/07/30 03:17:45;;;;;;;7.85;7.05;;;14.10;99.90;;;;;;5091668;28;20039;-65
2022/07/30 03:20:14;;;;;;;9.63;6.38;;;14.20;99.90;;;;;;5091697;28;20127;-66
2022/07/30 03:22:43;;;;;;;10.50;7.32;;;14.20;99.90;;;;;;5075029;28;20060;-65
2022/07/30 03:25:11;;;;;;;10.88;7.18;;;14.20;99.90;;;;;;5074839;28;20040;-66
2022/07/30 03:27:38;;;;;;;8.73;7.60;;;14.30;99.90;;;;;;5063156;28;20411;-65
2022/07/30 03:30:05;;;;;;;8.52;7.63;;;14.30;99.90;;;;;;5072792;28;20688;-64
2022/07/30 03:32:31;;;;;;;9.98;8.20;;;14.30;99.90;;;;;;5064573;28;20170;-65
2022/07/30 03:34:58;;;;;;;20.60;8.38;;;14.40;99.90;;;;;;5068533;28;20040;-65
2022/07/30 03:37:26;;;;;;;15.80;8.35;;;14.40;99.90;;;;;;5061577;28;20080;-65
2022/07/30 03:39:52;;;;;;;18.42;8.52;;;14.40;99.90;;;;;;5072160;28;20384;-66
2022/07/30 03:42:20;;;;;;;9.38;8.00;;;14.50;99.90;;;;;;5059319;28;20125;-65
2022/07/30 03:44:46;;;;;;;20.25;8.57;;;14.50;99.90;;;;;;5072762;28;20083;-66
2022/07/30 03:47:14;;;;;;;18.00;8.75;;;14.60;99.90;;;;;;5062351;28;20049;-65
2022/07/30 03:49:40;;;;;;;36.40;8.70;;;14.60;99.90;;;;;;5060528;28;20048;-64
2022/07/30 03:52:07;;;;;;;13.95;8.10;;;14.70;99.90;;;;;;5057599;28;20037;-65
2022/07/30 03:54:33;;;;;;;15.23;8.43;;;14.70;99.90;;;;;;5063482;28;20052;-67
2022/07/30 03:57:00;;;;;;;11.73;8.57;;;14.70;99.90;;;;;;5079568;28;20072;-66
2022/07/30 03:59:27;;;;;;;17.63;8.15;;;14.70;99.90;;;;;;5066502;28;20124;-64
2022/07/30 04:01:53;;;;;;;13.63;8.40;;;14.80;99.90;;;;;;5066282;28;20091;-66
2022/07/30 04:04:19;;;;;;;33.38;7.85;;;14.80;99.90;;;;;;5060170;28;20201;-66
2022/07/30 04:06:44;;;;;;;19.65;7.88;;;14.90;99.90;;;;;;5064379;28;20115;-64
2022/07/30 04:09:11;;;;;;;16.58;7.40;;;14.90;99.90;;;;;;5070358;28;20094;-65
2022/07/30 04:11:37;;;;;;;41.53;7.35;;;14.90;99.90;;;;;;5065197;28;20029;-65
2022/07/30 04:14:03;;;;;;;27.98;7.18;;;14.90;99.90;;;;;;5059149;28;20433;-65
2022/07/30 04:16:45;;;;;;;48.67;7.72;;;15.00;99.90;;;;;;5062110;28;20053;-66
2022/07/30 04:19:37;;;;;;;17.40;6.70;;;14.90;99.90;;;;;;5067204;28;20070;-65
2022/07/30 04:22:04;;;;;;;20.80;7.67;;;15.00;99.90;;;;;;5057636;28;20317;-66
2022/07/30 04:24:31;;;;;;;39.97;8.35;;;14.90;99.90;;;;;;5066062;28;20306;-66
2022/07/30 04:26:59;;;;;;;24.58;7.13;;;14.90;99.90;;;;;;5066712;28;20094;-65
2022/07/30 04:29:25;;;;;;;19.65;7.15;;;14.90;99.90;;;;;;5059412;28;20051;-66
2022/07/30 04:31:53;;;;;;;10.05;7.20;;;15.00;99.90;;;;;;5064701;28;20032;-66
2022/07/30 04:34:19;;;;;;;8.70;7.20;;;15.00;99.90;;;;;;5071307;28;20043;-67
2022/07/30 04:36:44;;;;;;;6.85;6.25;;;15.00;99.90;;;;;;5068166;28;20397;-65
2022/07/30 04:39:11;;;;;;;19.05;7.40;;;15.10;99.90;;;;;;5068362;28;20055;-66
2022/07/30 04:41:37;;;;;;;18.10;7.40;;;15.10;99.90;;;;;;5062188;28;20411;-64
2022/07/30 04:44:03;;;;;;;11.07;7.00;;;15.10;99.90;;;;;;5069481;28;20477;-66
2022/07/30 04:46:28;;;;;;;17.52;6.88;;;15.10;99.90;;;;;;5062263;28;20115;-65
2022/07/30 04:48:54;;;;;;;12.20;7.43;;;15.10;99.90;;;;;;5068661;28;20040;-65
2022/07/30 04:51:28;;;;;;;21.17;7.57;;;15.10;99.90;;;;;;5064344;28;20036;-65
2022/07/30 04:53:56;;;;;;;9.02;7.07;;;15.10;99.90;;;;;;5057995;28;20395;-64
2022/07/30 04:56:23;;;;;;;12.75;7.13;;;15.20;99.90;;;;;;5059817;28;20119;-65
2022/07/30 04:58:50;;;;;;;29.23;8.13;;;15.20;99.90;;;;;;5055234;28;20045;-65
2022/07/30 05:01:24;;;;;;;8.63;7.25;;;15.20;99.90;;;;;;5067820;28;20051;-66
2022/07/30 05:03:52;;;;;;;11.50;8.10;;;15.20;99.90;;;;;;5062215;28;20072;-67
2022/07/30 05:06:19;;;;;;;29.98;8.05;;;15.30;99.90;;;;;;5057858;28;20040;-65
2022/07/30 05:08:45;;;;;;;49.75;8.73;;;15.30;99.90;;;;;;5066226;28;20047;-65
2022/07/30 05:11:14;;;;;;;35.95;8.93;;;15.30;99.90;;;;;;5049329;28;20041;-67
2022/07/30 05:13:44;;;;;;;14.32;7.72;;;15.40;99.90;;;;;;5064170;28;20036;-65
2022/07/30 05:16:10;;;;;;;33.00;8.38;;;15.30;99.90;;;;;;5066704;28;20117;-66
2022/07/30 05:18:36;;;;;;;42.30;8.45;;;15.40;99.90;;;;;;5060777;28;20467;-65
2022/07/30 05:21:03;;;;;;;32.45;8.35;;;15.40;99.90;;;;;;5060605;28;20041;-66
2022/07/30 05:23:29;;;;;;;18.15;7.78;;;15.50;99.90;;;;;;5070524;28;20040;-66
2022/07/30 05:25:54;;;;;;;41.75;6.80;;;15.50;99.90;;;;;;5063263;28;20037;-65
2022/07/30 05:28:21;;;;;;;51.70;6.68;;;15.60;99.90;;;;;;5072658;28;20075;-65
2022/07/30 05:30:47;;;;;;;30.42;6.60;;;15.60;99.90;;;;;;5072093;28;20555;-65
2022/07/30 05:33:12;;;;;;;10.27;5.72;;;15.60;99.90;;;;;;5072943;28;20028;-64
2022/07/30 05:35:38;;;;;;;26.63;6.35;;;15.70;99.90;;;;;;5071680;28;20035;-65
2022/07/30 05:38:04;;;;;;;56.97;7.00;;;15.70;99.90;;;;;;5073859;28;20482;-67
2022/07/30 05:40:29;;;;;;;47.53;6.82;;;15.70;99.90;;;;;;5072364;28;20032;-67
2022/07/30 05:42:55;;;;;;;22.25;7.10;;;15.80;99.90;;;;;;5081737;28;20397;-68
2022/07/30 05:45:20;;;;;;;39.33;8.50;;;15.80;99.90;;;;;;5083635;28;20048;-66
2022/07/30 05:47:47;;;;;;;11.40;6.45;;;15.90;99.90;;;;;;5087920;28;20031;-66
2022/07/30 05:50:12;;;;;;;26.17;7.70;;;15.90;99.90;;;;;;5072044;28;20070;-66
2022/07/30 05:52:38;;;;;;;10.40;6.53;;;15.90;99.90;;;;;;5054512;28;20032;-66
2022/07/30 05:55:04;;;;;;;14.40;7.15;;;16.00;99.90;;;;;;5091306;28;20047;-65
2022/07/30 05:57:29;;;;;;;20.90;8.10;;;16.00;99.90;;;;;;5072151;28;20093;-65
2022/07/30 05:59:55;;;;;;;11.68;7.55;;;16.10;99.90;;;;;;5072417;28;20044;-65
2022/07/30 06:02:21;;;;;;;11.13;7.47;;;16.10;99.90;;;;;;5073190;28;20050;-66
2022/07/30 06:04:46;;;;;;;11.13;8.27;;;16.10;99.90;;;;;;5090112;28;20089;-65
2022/07/30 06:07:12;;;;;;;20.80;9.00;;;16.20;99.90;;;;;;5072546;28;20036;-65
2022/07/30 06:09:37;;;;;;;11.43;8.60;;;16.20;99.90;;;;;;5072778;28;20035;-66
2022/07/30 06:12:04;;;;;;;14.68;9.48;;;16.30;99.90;;;;;;5072986;28;20048;-66
2022/07/30 06:14:30;;;;;;;14.63;9.02;;;16.40;99.90;;;;;;5072002;28;20044;-66
2022/07/30 06:16:56;;;;;;;10.80;8.57;;;16.50;99.90;;;;;;5072903;28;20486;-65
2022/07/30 06:19:22;;;;;;;12.27;9.73;;;16.50;99.90;;;;;;5055685;28;20086;-66
2022/07/30 06:21:47;;;;;;;13.30;8.88;;;16.60;99.90;;;;;;5072712;28;20043;-66
2022/07/30 06:24:13;;;;;;;13.65;8.57;;;16.70;99.90;;;;;;5071556;28;20044;-66
2022/07/30 06:26:38;;;;;;;13.70;9.95;;;16.80;99.90;;;;;;5058144;28;20081;-65
2022/07/30 06:29:05;;;;;;;12.27;9.27;;;16.90;99.90;;;;;;5069680;28;20043;-66
2022/07/30 06:31:30;;;;;;;13.70;9.30;;;16.90;99.90;;;;;;5064922;28;20474;-65
2022/07/30 06:33:56;;;;;;;11.00;8.65;;;17.00;99.90;;;;;;5062678;28;20075;-67
2022/07/30 06:36:22;;;;;;;11.30;8.95;;;17.00;99.90;;;;;;5061479;28;20384;-65
2022/07/30 06:38:47;;;;;;;12.88;8.63;;;17.10;99.90;;;;;;5064543;28;20052;-66
2022/07/30 06:41:14;;;;;;;12.52;8.50;;;17.10;99.90;;;;;;5068835;28;20041;-66
2022/07/30 06:43:40;;;;;;;12.43;9.20;;;17.20;99.90;;;;;;5069449;28;20133;-66
2022/07/30 06:46:06;;;;;;;14.82;8.20;;;17.20;99.90;;;;;;5065422;28;20060;-66
2022/07/30 06:48:31;;;;;;;13.57;8.73;;;17.30;99.90;;;;;;5069703;28;20032;-66
2022/07/30 06:50:57;;;;;;;11.18;8.40;;;17.30;99.90;;;;;;5069001;28;20043;-66
2022/07/30 06:53:23;;;;;;;11.48;7.72;;;17.40;99.90;;;;;;5069330;28;20040;-66
2022/07/30 06:55:49;;;;;;;11.65;7.30;;;17.60;99.90;;;;;;5060817;28;20190;-66
2022/07/30 06:58:15;;;;;;;13.43;7.75;;;17.70;99.90;;;;;;5069185;28;20043;-67
2022/07/30 07:00:43;;;;;;;10.40;7.20;;;17.90;99.90;;;;;;5065635;28;20080;-65
2022/07/30 07:03:09;;;;;;;12.10;7.10;;;17.90;99.90;;;;;;5068960;28;20051;-65
2022/07/30 07:05:35;;;;;;;10.73;6.97;;;17.90;99.90;;;;;;5069063;28;20048;-66
2022/07/30 07:08:01;;;;;;;8.50;6.13;;;18.10;99.90;;;;;;5068638;28;20535;-66
2022/07/30 07:10:26;;;;;;;13.48;7.72;;;18.30;99.90;;;;;;5061982;28;20029;-66
2022/07/30 07:12:52;;;;;;;14.55;6.65;;;18.50;99.90;;;;;;5069130;28;20079;-67
2022/07/30 07:15:18;;;;;;;10.52;6.00;;;18.40;99.90;;;;;;5069075;28;20103;-65
2022/07/30 07:17:44;;;;;;;7.90;5.93;;;18.40;99.90;;;;;;5069616;28;20048;-66
2022/07/30 07:20:10;;;;;;;11.90;5.55;;;18.40;99.90;;;;;;5061940;28;20458;-67
2022/07/30 07:22:36;;;;;;;13.77;6.25;;;18.60;99.90;;;;;;5068927;28;20045;-65
2022/07/30 07:25:02;;;;;;;10.27;4.75;;;18.70;99.90;;;;;;5067709;28;20504;-67
2022/07/30 07:27:28;;;;;;;8.20;4.30;;;18.90;99.90;;;;;;5091645;28;20700;-66
2022/07/30 07:29:53;;;;;;;11.05;4.78;;;19.10;99.90;;;;;;5071897;28;20059;-68
2022/07/30 07:32:19;;;;;;;9.02;4.68;;;19.00;99.90;;;;;;5072195;28;20070;-66
2022/07/30 07:34:44;;;;;;;7.22;3.90;;;19.00;99.90;;;;;;5071489;28;20393;-67
2022/07/30 07:37:10;;;;;;;10.80;4.65;;;19.20;99.90;;;;;;5079673;28;20048;-67
2022/07/30 07:39:36;;;;;;;8.02;3.75;;;19.30;99.90;;;;;;5071623;28;20047;-65
2022/07/30 07:42:01;;;;;;;7.32;3.78;;;19.40;99.90;;;;;;5056356;28;20086;-67
2022/07/30 07:44:27;;;;;;;7.88;3.85;;;19.60;99.90;;;;;;5069012;28;20051;-68
2022/07/30 07:46:53;;;;;;;9.15;3.80;;;19.70;99.90;;;;;;5090208;28;20398;-67
2022/07/30 07:49:18;;;;;;;7.00;3.63;;;19.60;99.90;;;;;;5087505;28;20028;-67
2022/07/30 07:51:44;;;;;;;11.18;3.45;;;19.50;99.90;;;;;;5073135;28;20059;-67
2022/07/30 07:54:09;;;;;;;10.25;2.97;;;19.50;99.90;;;;;;5074433;28;20055;-66
2022/07/30 07:56:35;;;;;;;7.82;3.45;;;19.70;99.90;;;;;;5074982;28;20125;-66
2022/07/30 07:59:01;;;;;;;8.50;3.20;;;19.80;99.90;;;;;;5075512;28;20062;-65
2022/07/30 08:01:26;;;;;;;7.72;3.20;;;20.00;99.90;;;;;;5076869;28;20055;-67
2022/07/30 08:03:52;;;;;;;7.15;3.15;;;20.30;99.90;;;;;;5095254;28;20042;-67
2022/07/30 08:06:17;;;;;;;8.25;3.28;;;20.60;99.90;;;;;;5092106;28;20044;-67
2022/07/30 08:08:43;;;;;;;9.30;2.75;;;20.60;99.90;;;;;;5059060;28;20105;-66
2022/07/30 08:11:09;;;;;;;5.55;3.00;;;20.70;99.90;;;;;;5092006;28;20063;-67
2022/07/30 08:13:34;;;;;;;7.45;3.05;;;20.90;99.90;;;;;;5075558;28;20043;-66
2022/07/30 08:16:03;;;;;;;4.93;2.60;;;20.70;99.90;;;;;;5075325;28;20032;-67
2022/07/30 08:18:29;;;;;;;7.93;2.75;;;20.30;99.90;;;;;;5077914;28;20124;-67
2022/07/30 08:20:54;;;;;;;6.63;3.10;;;20.30;99.90;;;;;;5079929;28;20119;-67
2022/07/30 08:23:21;;;;;;;9.25;2.92;;;20.40;99.90;;;;;;5075092;28;20066;-66
2022/07/30 08:25:47;;;;;;;8.23;2.47;;;20.70;99.90;;;;;;5072350;28;20078;-67
2022/07/30 08:28:13;;;;;;;5.80;2.55;;;21.00;99.90;;;;;;5075413;28;20039;-67
2022/07/30 08:30:39;;;;;;;4.70;2.17;;;21.00;99.90;;;;;;5075076;28;20082;-66
2022/07/30 08:33:05;;;;;;;5.35;2.72;;;20.90;99.90;;;;;;5084781;28;20449;-65
2022/07/30 08:35:30;;;;;;;8.55;3.13;;;21.10;99.90;;;;;;5085843;28;20028;-67
2022/07/30 08:37:56;;;;;;;7.70;2.35;;;21.30;99.90;;;;;;5073261;28;20063;-67
2022/07/30 08:40:25;;;;;;;7.70;2.50;;;21.20;99.90;;;;;;5081714;28;20040;-68
2022/07/30 08:42:52;;;;;;;5.82;2.30;;;21.50;99.90;;;;;;5073983;28;20048;-66
2022/07/30 08:45:18;;;;;;;5.00;2.20;;;21.70;99.90;;;;;;5108310;28;20032;-66
2022/07/30 08:47:45;;;;;;;6.03;2.10;;;21.80;99.90;;;;;;5101563;28;20032;-68
2022/07/30 08:50:13;;;;;;;9.30;2.53;;;21.60;99.90;;;;;;5113270;28;20059;-68
2022/07/30 08:52:39;;;;;;;6.25;2.42;;;21.40;99.90;;;;;;5095096;28;20039;-67
2022/07/30 08:55:05;;;;;;;5.22;2.53;;;21.60;99.90;;;;;;5080814;28;20076;-66
2022/07/30 08:57:33;;;;;;;7.55;2.40;;;21.60;99.90;;;;;;5092273;28;20036;-65
2022/07/30 08:59:59;;;;;;;5.97;2.45;;;21.50;99.90;;;;;;5089506;28;20397;-68
2022/07/30 09:02:25;;;;;;;4.97;2.35;;;21.50;99.90;;;;;;5094959;28;20546;-67
2022/07/30 09:04:52;;;;;;;7.97;2.33;;;21.50;99.90;;;;;;5112201;28;20107;-67
2022/07/30 09:07:18;;;;;;;5.97;2.85;;;21.70;99.90;;;;;;5104449;28;20032;-67
2022/07/30 09:09:43;;;;;;;6.90;2.25;;;22.00;99.90;;;;;;5075518;28;20035;-67
2022/07/30 09:12:42;;;;;;;7.88;2.72;;;22.30;99.90;;;;;;5056790;28;20040;-67
2022/07/30 09:15:18;;;;;;;5.05;2.30;;;22.40;99.90;;;;;;4974626;28;20501;-67
2022/07/30 09:18:03;;;;;;;4.60;2.42;;;22.50;99.90;;;;;;4989388;28;20058;-67
2022/07/30 09:20:32;;;;;;;7.53;2.60;;;22.80;99.90;;;;;;4976365;28;20046;-68
2022/07/30 09:23:02;;;;;;;6.60;2.20;;;23.00;99.90;;;;;;4973967;28;20045;-67
2022/07/30 09:25:35;;;;;;;7.95;2.13;;;23.20;99.90;;;;;;4984531;28;20058;-68
2022/07/30 09:28:01;;;;;;;4.65;2.10;;;23.20;99.90;;;;;;4976566;28;20057;-69
2022/07/30 09:30:45;;;;;;;6.18;1.90;;;23.00;99.90;;;;;;4974097;28;20034;-67
2022/07/30 09:33:10;;;;;;;7.45;2.13;;;23.00;99.90;;;;;;5004713;28;20037;-67
2022/07/30 09:35:37;;;;;;;5.13;2.25;;;23.30;99.90;;;;;;4975813;28;20053;-67
2022/07/30 09:38:03;;;;;;;4.70;1.80;;;23.60;99.90;;;;;;4988238;28;20054;-69
2022/07/30 09:40:29;;;;;;;3.65;2.25;;;23.80;99.90;;;;;;4973676;28;20129;-67
2022/07/30 09:43:05;;;;;;;5.78;1.98;;;24.00;99.90;;;;;;4974709;28;20042;-67
2022/07/30 09:45:31;;;;;;;3.47;1.95;;;24.00;99.90;;;;;;4982058;28;20077;-66
2022/07/30 09:47:57;;;;;;;6.13;2.40;;;24.30;99.90;;;;;;4957485;28;20055;-67
2022/07/30 09:50:23;;;;;;;5.03;2.00;;;24.20;99.90;;;;;;5010979;28;20040;-67
2022/07/30 09:52:50;;;;;;;5.18;2.17;;;23.80;99.90;;;;;;5089326;28;20686;-65
2022/07/30 09:55:30;;;;;;;8.40;2.10;;;23.40;99.90;;;;;;5091761;28;20389;-67
2022/07/30 09:58:04;;;;;;;6.22;2.10;;;23.60;99.90;;;;;;5073084;28;20394;-68
2022/07/30 10:00:34;;;;;;;7.25;1.90;;;23.60;99.90;;;;;;5073276;28;20040;-67
2022/07/30 10:03:12;;;;;;;6.40;2.03;;;24.10;99.90;;;;;;5074451;28;20051;-67
2022/07/30 10:05:47;;;;;;;6.75;2.85;;;24.50;99.90;;;;;;5083557;28;20050;-66
2022/07/30 10:08:13;;;;;;;5.38;2.78;;;24.10;99.90;;;;;;5073135;28;20047;-66
2022/07/30 10:10:39;;;;;;;5.40;2.10;;;24.10;99.90;;;;;;5091789;28;20397;-66
2022/07/30 10:13:07;;;;;;;7.10;2.33;;;24.30;99.90;;;;;;5085020;28;20035;-67
2022/07/30 10:15:35;;;;;;;7.10;2.50;;;24.50;99.90;;;;;;5073407;28;20076;-67
2022/07/30 10:18:03;;;;;;;8.65;2.92;;;24.40;99.90;;;;;;5090580;28;20047;-65
2022/07/30 10:20:28;;;;;;;7.43;2.40;;;24.40;99.90;;;;;;5073296;28;20477;-65
2022/07/30 10:22:55;;;;;;;5.97;2.20;;;24.40;99.90;;;;;;5074353;28;20123;-66
2022/07/30 10:25:22;;;;;;;4.97;2.60;;;24.80;99.90;;;;;;5081674;28;20465;-67
2022/07/30 10:27:48;;;;;;;5.70;2.40;;;24.80;98.80;;;;;;5095351;28;20052;-67
2022/07/30 10:30:15;;;;;;;6.43;2.70;;;24.80;99.10;;;;;;5072269;28;20040;-67
2022/07/30 10:32:43;;;;;;;5.47;2.60;;;24.80;99.10;;;;;;5072739;28;20036;-66
2022/07/30 10:35:10;;;;;;;7.25;2.60;;;24.50;99.10;;;;;;5071430;28;20036;-67
2022/07/30 10:37:48;;;;;;;5.00;2.30;;;24.20;99.20;;;;;;5072660;28;20051;-68
2022/07/30 10:40:25;;;;;;;7.57;2.53;;;24.20;99.40;;;;;;5072503;28;20087;-67
2022/07/30 10:43:13;;;;;;;5.35;2.10;;;24.30;99.30;;;;;;5088331;28;20093;-67
2022/07/30 10:45:57;;;;;;;4.82;2.20;;;24.30;99.20;;;;;;5076631;28;20375;-66
2022/07/30 10:48:23;;;;;;;4.63;2.00;;;24.40;99.20;;;;;;5070316;28;20431;-67
2022/07/30 10:50:55;;;;;;;3.28;1.88;;;24.80;99.40;;;;;;5084060;28;20044;-67
2022/07/30 10:53:41;;;;;;;5.68;1.60;;;25.00;97.60;;;;;;5092681;28;20052;-68
2022/07/30 10:56:13;;;;;;;4.75;1.90;;;25.30;98.50;;;;;;5091478;28;20528;-67
2022/07/30 10:59:05;;;;;;;6.15;2.22;;;25.60;98.30;;;;;;5067602;28;20048;-66
2022/07/30 11:01:46;;;;;;;;;;;25.60;97.10;;;;;;5072191;28;20075;-66
2022/07/30 11:04:21;;;;;;;3.35;1.63;;;24.80;96.90;;;;;;5089589;28;19916;-66
2022/07/30 11:06:48;;;;;;;4.57;1.48;;;24.70;98.20;;;;;;5079828;28;20052;-67
2022/07/30 11:09:39;;;;;;;3.95;1.77;;;24.90;98.70;;;;;;5085572;28;20048;-66
2022/07/30 11:12:06;;;;;;;2.73;1.60;;;25.00;97.70;;;;;;5078747;28;20114;-67
2022/07/30 11:14:47;;;;;;;5.97;2.17;;;25.00;97.50;;;;;;5073917;28;20386;-67
2022/07/30 11:17:15;;;;;;;2.70;1.45;;;25.00;97.00;;;;;;5072678;28;20039;-67
2022/07/30 11:20:10;;;;;;;4.45;1.70;;;24.70;97.00;;;;;;5074299;28;20051;-67
2022/07/30 11:22:39;;;;;;;4.45;1.70;;;24.80;97.40;;;;;;5080867;28;20495;-67
2022/07/30 11:25:05;;;;;;;5.47;1.67;;;25.00;97.20;;;;;;5072402;28;20119;-67
2022/07/30 11:27:45;;;;;;;3.58;1.83;;;25.20;97.50;;;;;;5071007;28;20661;-66
2022/07/30 11:30:19;;;;;;;5.68;1.70;;;25.10;96.70;;;;;;5069837;28;20092;-68
2022/07/30 11:32:47;;;;;;;4.95;1.70;;;25.20;97.40;;;;;;5044787;28;20536;-67
2022/07/30 11:35:24;;;;;;;4.65;1.58;;;25.20;96.90;;;;;;5072977;28;20035;-66
2022/07/30 11:37:57;;;;;;;4.55;1.90;;;25.20;95.50;;;;;;5072942;28;20100;-67
2022/07/30 11:40:24;;;;;;;3.85;1.60;;;25.40;95.70;;;;;;5066964;28;20044;-68
2022/07/30 11:42:50;;;;;;;4.65;1.60;;;25.10;95.30;;;;;;5072693;28;20457;-67
2022/07/30 11:45:21;;;;;;;4.72;1.52;;;25.10;95.80;;;;;;5073792;28;20048;-68
2022/07/30 11:47:50;;;;;;;2.35;1.80;;;25.10;95.50;;;;;;5072689;28;20441;-67
2022/07/30 11:50:17;;;;;;;3.38;1.60;;;25.10;95.40;;;;;;5073746;28;20109;-68
2022/07/30 11:52:48;;;;;;;4.10;1.40;;;25.00;95.20;;;;;;5060695;28;20041;-68
2022/07/30 11:55:25;;;;;;;3.45;1.65;;;25.00;95.50;;;;;;5072456;28;20044;-67
2022/07/30 11:57:52;;;;;;;4.82;1.70;;;24.90;95.00;;;;;;5072583;28;20480;-67
2022/07/30 12:00:17;;;;;;;3.55;1.30;;;24.80;94.90;;;;;;5055327;28;20052;-68
2022/07/30 12:02:44;;;;;;;3.50;1.60;;;24.80;95.40;;;;;;5069314;28;20051;-66
2022/07/30 12:05:10;;;;;;;4.28;1.40;;;24.90;94.70;;;;;;5072640;28;20479;-66
2022/07/30 12:07:36;;;;;;;3.35;1.45;;;24.80;94.70;;;;;;5073378;28;20536;-67
2022/07/30 12:10:18;;;;;;;3.58;1.52;;;24.90;94.40;;;;;;5072186;28;20033;-65
2022/07/30 12:12:44;;;;;;;;;;;24.80;94.10;;;;;;5063767;28;20397;-67
2022/07/30 12:15:26;;;;;;;4.25;1.45;;;24.80;95.10;;;;;;5048109;28;20003;-66
2022/07/30 12:17:52;;;;;;;4.00;1.30;;;24.80;95.20;;;;;;5072171;28;20044;-66
2022/07/30 12:20:19;;;;;;;5.60;1.45;;;24.70;94.80;;;;;;5072015;28;20379;-67
2022/07/30 12:22:45;;;;;;;2.65;1.20;;;24.50;94.70;;;;;;5071826;28;20048;-67
2022/07/30 12:25:12;;;;;;;3.38;1.50;;;24.60;94.80;;;;;;5070097;28;20387;-67
2022/07/30 12:27:38;;;;;;;3.30;1.70;;;24.50;95.30;;;;;;5057427;28;20048;-66
2022/07/30 12:30:06;;;;;;;3.63;1.20;;;24.40;94.80;;;;;;5051736;28;20052;-68
2022/07/30 12:32:32;;;;;;;4.50;1.70;;;24.40;95.10;;;;;;5051657;28;20045;-65
2022/07/30 12:34:57;;;;;;;4.72;1.73;;;24.40;94.90;;;;;;5051833;28;20086;-67
2022/07/30 12:37:24;;;;;;;3.80;1.38;;;24.40;94.60;;;;;;5051188;28;20390;-67
2022/07/30 12:40:11;;;;;;;3.78;1.45;;;24.40;94.50;;;;;;5050888;28;20475;-67
2022/07/30 12:42:47;;;;;;;3.03;1.42;;;24.30;94.50;;;;;;5052617;28;20059;-67
2022/07/30 12:45:29;;;;;;;2.63;0.98;;;24.00;94.20;;;;;;5051855;28;20032;-66
2022/07/30 12:47:55;;;;;;;4.72;1.38;;;23.90;94.80;;;;;;5051376;28;20497;-67
2022/07/30 12:50:21;;;;;;;2.95;1.15;;;24.00;94.50;;;;;;5051638;28;20174;-67